Time;durP1;ratioP1;P1;durP2;ratioP2;P2;SDS_P1;SDS_P2;PMS_P1;PMS_P2;Temp;Humidity;BMP_temperature;BMP_pressure;BME280_temperature;BME280_humidity;BME280_pressure;Samples;Min_cycle;Max_cycle;Signal;HPM_P1;HPM_P2
2023/04/20 00:01:08;;;;;;;4.40;3.23;;;9.40;94.60;;;;;;5002234;28;20237;-69
2023/04/20 00:03:34;;;;;;;3.37;2.43;;;9.30;94.40;;;;;;5005851;28;20252;-70
2023/04/20 00:06:00;;;;;;;3.30;2.50;;;9.20;94.50;;;;;;5008383;28;20233;-68
2023/04/20 00:08:29;;;;;;;2.87;2.30;;;9.20;94.70;;;;;;5009340;28;20465;-70
2023/04/20 00:10:55;;;;;;;5.53;2.40;;;9.20;94.80;;;;;;5007368;28;20492;-70
2023/04/20 00:13:20;;;;;;;3.80;2.97;;;9.20;94.80;;;;;;5011107;28;20881;-69
2023/04/20 00:15:46;;;;;;;4.03;2.70;;;9.20;94.60;;;;;;5012709;28;20695;-70
2023/04/20 00:18:11;;;;;;;3.07;2.50;;;9.20;94.60;;;;;;5009620;28;20251;-70
2023/04/20 00:20:38;;;;;;;3.37;2.50;;;9.20;94.70;;;;;;4990588;28;20297;-70
2023/04/20 00:23:04;;;;;;;4.13;2.63;;;9.10;94.60;;;;;;4992371;28;20220;-70
2023/04/20 00:25:30;;;;;;;3.47;2.47;;;9.10;94.70;;;;;;5011130;28;20463;-70
2023/04/20 00:27:57;;;;;;;2.93;2.50;;;9.10;94.60;;;;;;5008102;28;20313;-70
2023/04/20 00:30:23;;;;;;;3.07;2.80;;;9.10;94.60;;;;;;4998155;28;20543;-70
2023/04/20 00:32:48;;;;;;;4.03;2.83;;;9.00;94.60;;;;;;5005996;28;20547;-70
2023/04/20 00:35:14;;;;;;;4.20;2.40;;;9.00;94.80;;;;;;4992938;28;20464;-71
2023/04/20 00:37:40;;;;;;;2.23;2.03;;;9.00;94.80;;;;;;5010579;28;20221;-69
2023/04/20 00:40:06;;;;;;;4.70;2.17;;;9.00;94.80;;;;;;5010715;28;20224;-68
2023/04/20 00:42:32;;;;;;;2.33;2.13;;;9.00;94.80;;;;;;5010305;28;20304;-70
2023/04/20 00:44:58;;;;;;;4.10;3.17;;;8.90;94.80;;;;;;5010644;28;20531;-70
2023/04/20 00:47:24;;;;;;;3.50;2.63;;;8.90;94.80;;;;;;5006326;28;20275;-69
2023/04/20 00:49:52;;;;;;;3.87;2.43;;;8.90;94.80;;;;;;5010542;28;20280;-70
2023/04/20 00:52:18;;;;;;;2.90;2.40;;;8.80;94.80;;;;;;5008536;28;20459;-69
2023/04/20 00:54:44;;;;;;;2.73;2.03;;;8.90;94.90;;;;;;4989881;28;20476;-69
2023/04/20 00:57:12;;;;;;;6.20;2.90;;;8.90;95.00;;;;;;4988516;28;20456;-68
2023/04/20 00:59:38;;;;;;;2.47;2.13;;;8.90;95.00;;;;;;5003522;28;20282;-70
2023/04/20 01:02:04;;;;;;;4.13;2.50;;;8.70;94.60;;;;;;4988131;28;21013;-70
2023/04/20 01:04:30;;;;;;;3.20;2.37;;;8.70;94.90;;;;;;4997199;28;20477;-70
2023/04/20 01:06:57;;;;;;;2.77;2.57;;;8.70;94.90;;;;;;4996462;28;20221;-70
2023/04/20 01:09:22;;;;;;;5.67;3.20;;;8.70;94.90;;;;;;4985077;28;20523;-70
2023/04/20 01:11:48;;;;;;;3.47;3.17;;;8.70;94.70;;;;;;4999820;28;20234;-69
2023/04/20 01:14:15;;;;;;;2.90;2.50;;;8.70;94.90;;;;;;5005017;28;20220;-70
2023/04/20 01:16:41;;;;;;;3.20;2.53;;;8.70;94.80;;;;;;5004096;28;20475;-69
2023/04/20 01:19:07;;;;;;;5.10;3.00;;;8.70;94.80;;;;;;5011522;28;20225;-69
2023/04/20 01:21:32;;;;;;;5.33;2.80;;;8.70;94.90;;;;;;5002567;28;20487;-70
2023/04/20 01:23:58;;;;;;;3.10;2.80;;;8.60;94.60;;;;;;4998409;28;20233;-70
2023/04/20 01:26:24;;;;;;;3.43;2.33;;;8.70;94.90;;;;;;4998064;28;20223;-68
2023/04/20 01:28:50;;;;;;;2.83;2.60;;;8.70;95.00;;;;;;4999998;28;20221;-69
2023/04/20 01:31:16;;;;;;;5.60;2.77;;;8.60;94.90;;;;;;5003096;28;20484;-70
2023/04/20 01:33:42;;;;;;;5.50;3.20;;;8.50;94.70;;;;;;4995712;28;20301;-71
2023/04/20 01:36:08;;;;;;;7.80;2.90;;;8.50;95.00;;;;;;5002210;28;20229;-70
2023/04/20 01:38:35;;;;;;;3.50;2.93;;;8.40;94.90;;;;;;5000596;28;20257;-69
2023/04/20 01:41:05;;;;;;;3.33;3.03;;;8.40;95.10;;;;;;5010749;28;20472;-69
2023/04/20 01:43:32;;;;;;;3.30;2.53;;;8.40;95.20;;;;;;4983813;28;20480;-70
2023/04/20 01:45:59;;;;;;;5.40;3.20;;;8.50;95.40;;;;;;4986421;28;20469;-69
2023/04/20 01:48:25;;;;;;;4.70;2.67;;;8.40;95.00;;;;;;4995309;28;21078;-68
2023/04/20 01:50:52;;;;;;;3.30;2.87;;;8.40;95.20;;;;;;4997105;28;20506;-70
2023/04/20 01:53:18;;;;;;;3.33;3.03;;;8.40;95.10;;;;;;4998026;28;20484;-70
2023/04/20 01:55:46;;;;;;;3.70;2.67;;;8.40;95.30;;;;;;4997925;28;20830;-70
2023/04/20 01:58:12;;;;;;;3.93;2.47;;;8.40;95.30;;;;;;5011044;28;20473;-70
2023/04/20 02:00:38;;;;;;;4.63;2.93;;;8.20;95.10;;;;;;4982557;28;20467;-70
2023/04/20 02:03:05;;;;;;;3.40;3.10;;;8.30;95.40;;;;;;4999451;28;20596;-69
2023/04/20 02:05:31;;;;;;;3.10;2.80;;;8.30;95.30;;;;;;5011112;28;20457;-68
2023/04/20 02:07:56;;;;;;;3.20;2.90;;;8.30;95.30;;;;;;4998414;28;20713;-70
2023/04/20 02:10:22;;;;;;;4.27;2.40;;;8.20;95.20;;;;;;4998464;28;20276;-70
2023/04/20 02:12:49;;;;;;;5.10;3.20;;;8.20;95.40;;;;;;4980489;28;20268;-69
2023/04/20 02:15:15;;;;;;;5.00;2.97;;;8.10;95.40;;;;;;4982419;28;20214;-71
2023/04/20 02:17:42;;;;;;;7.83;2.73;;;8.10;95.40;;;;;;4980181;28;20457;-70
2023/04/20 02:20:09;;;;;;;2.67;2.37;;;8.00;95.50;;;;;;5002116;28;20543;-69
2023/04/20 02:22:36;;;;;;;3.53;3.00;;;8.10;95.50;;;;;;4992060;28;20465;-70
2023/04/20 02:25:04;;;;;;;3.40;2.77;;;8.00;95.50;;;;;;4987217;28;20818;-69
2023/04/20 02:27:30;;;;;;;4.73;2.83;;;8.00;95.30;;;;;;5005148;28;20547;-70
2023/04/20 02:29:56;;;;;;;5.80;2.83;;;8.00;95.40;;;;;;5001042;28;20453;-69
2023/04/20 02:32:21;;;;;;;4.13;3.23;;;7.90;95.60;;;;;;4998351;28;20974;-69
2023/04/20 02:34:48;;;;;;;5.07;3.03;;;7.90;95.50;;;;;;5000546;28;20593;-70
2023/04/20 02:37:14;;;;;;;4.70;3.23;;;8.00;95.60;;;;;;4985097;28;20459;-72
2023/04/20 02:39:41;;;;;;;2.67;2.47;;;7.90;95.40;;;;;;4982699;28;20249;-70
2023/04/20 02:42:07;;;;;;;4.03;2.80;;;7.90;95.60;;;;;;4998209;28;20505;-67
2023/04/20 02:44:32;;;;;;;6.57;3.10;;;7.90;95.50;;;;;;5000692;28;20217;-70
2023/04/20 02:46:58;;;;;;;4.30;3.43;;;7.90;95.50;;;;;;4997872;28;20228;-69
2023/04/20 02:49:25;;;;;;;3.47;2.83;;;7.80;95.60;;;;;;4997951;28;20288;-70
2023/04/20 02:51:50;;;;;;;4.63;2.70;;;7.80;95.60;;;;;;5005413;28;20827;-70
2023/04/20 02:54:16;;;;;;;3.23;2.90;;;7.80;95.60;;;;;;5012819;28;20229;-70
2023/04/20 02:56:42;;;;;;;4.30;2.87;;;7.60;95.40;;;;;;4997421;28;20230;-70
2023/04/20 02:59:09;;;;;;;5.97;3.27;;;7.70;95.60;;;;;;4988672;28;20492;-69
2023/04/20 03:01:42;;;;;;;4.90;3.10;;;7.70;95.60;;;;;;4982200;28;20465;-71
2023/04/20 03:04:29;;;;;;;13.13;2.50;;;7.60;95.60;;;;;;4995923;28;20538;-69
2023/04/20 03:07:17;;;;;;;3.40;2.83;;;7.60;95.70;;;;;;4998819;28;20888;-69
2023/04/20 03:09:44;;;;;;;3.53;2.67;;;7.60;95.80;;;;;;4993073;28;20459;-70
2023/04/20 03:12:18;;;;;;;4.47;2.70;;;7.50;95.70;;;;;;5007480;28;20525;-70
2023/04/20 03:15:05;;;;;;;2.60;2.33;;;7.60;95.60;;;;;;5000206;28;20467;-69
2023/04/20 03:17:54;;;;;;;2.70;2.50;;;7.60;95.70;;;;;;4997978;28;20488;-70
2023/04/20 03:20:19;;;;;;;3.47;2.40;;;7.50;95.70;;;;;;4990145;28;21025;-70
2023/04/20 03:22:45;;;;;;;3.37;2.57;;;7.50;95.70;;;;;;4986353;28;20299;-70
2023/04/20 03:25:11;;;;;;;3.57;2.40;;;7.60;96.00;;;;;;4991778;28;20209;-68
2023/04/20 03:28:09;;;;;;;3.27;2.77;;;7.60;95.80;;;;;;4989780;28;20518;-70
2023/04/20 03:30:36;;;;;;;3.90;2.70;;;7.60;95.70;;;;;;4990088;28;20823;-69
2023/04/20 03:33:07;;;;;;;3.07;2.40;;;7.60;95.70;;;;;;4987249;28;20466;-69
2023/04/20 03:35:33;;;;;;;2.43;2.20;;;7.60;95.60;;;;;;4988848;28;21533;-69
2023/04/20 03:37:59;;;;;;;2.63;2.40;;;7.50;95.70;;;;;;5002959;28;20256;-70
2023/04/20 03:40:25;;;;;;;2.67;2.30;;;7.50;95.80;;;;;;5000264;28;20221;-69
2023/04/20 03:42:51;;;;;;;3.10;2.63;;;7.50;95.90;;;;;;4997540;28;20244;-69
2023/04/20 03:45:17;;;;;;;7.37;3.63;;;7.50;95.80;;;;;;4997970;28;20858;-70
2023/04/20 03:47:43;;;;;;;3.47;2.77;;;7.50;95.80;;;;;;4985124;28;20221;-70
2023/04/20 03:50:09;;;;;;;4.23;2.77;;;7.60;95.80;;;;;;5004991;28;20220;-69
2023/04/20 03:52:35;;;;;;;4.23;3.00;;;7.60;96.00;;;;;;5004562;28;20249;-69
2023/04/20 03:55:04;;;;;;;6.43;3.53;;;7.60;95.90;;;;;;5001019;28;20235;-70
2023/04/20 03:57:31;;;;;;;6.23;3.60;;;7.60;95.80;;;;;;5003505;28;20992;-70
2023/04/20 03:59:57;;;;;;;3.40;3.00;;;7.50;96.00;;;;;;4989007;28;20508;-70
2023/04/20 04:02:26;;;;;;;3.40;2.70;;;7.50;96.10;;;;;;4995890;28;20602;-69
2023/04/20 04:04:53;;;;;;;6.90;3.30;;;7.50;96.10;;;;;;4981352;28;20465;-70
2023/04/20 04:07:21;;;;;;;3.10;2.80;;;7.60;96.10;;;;;;4986582;28;20456;-70
2023/04/20 04:09:47;;;;;;;3.63;3.03;;;7.60;96.20;;;;;;4985481;28;20560;-70
2023/04/20 04:12:14;;;;;;;2.70;2.50;;;7.50;96.20;;;;;;5000954;28;20482;-71
2023/04/20 04:14:40;;;;;;;3.80;3.03;;;7.50;96.50;;;;;;4996421;28;20447;-69
2023/04/20 04:17:07;;;;;;;4.00;3.50;;;7.40;96.50;;;;;;4999680;28;20725;-70
2023/04/20 04:19:35;;;;;;;4.20;3.33;;;7.40;96.80;;;;;;4997150;28;20538;-69
2023/04/20 04:22:02;;;;;;;4.47;3.30;;;7.30;97.00;;;;;;4990404;28;20527;-68
2023/04/20 04:24:32;;;;;;;4.43;3.50;;;7.20;97.20;;;;;;4999346;28;20539;-69
2023/04/20 04:27:04;;;;;;;5.60;3.50;;;7.20;97.10;;;;;;5001533;28;20461;-69
2023/04/20 04:29:34;;;;;;;3.47;2.73;;;7.20;97.20;;;;;;4997039;28;20470;-69
2023/04/20 04:32:04;;;;;;;3.00;2.70;;;7.30;97.30;;;;;;4996036;28;20889;-70
2023/04/20 04:34:32;;;;;;;5.20;2.97;;;7.20;97.30;;;;;;4999775;28;20467;-69
2023/04/20 04:36:58;;;;;;;10.10;2.83;;;7.20;97.30;;;;;;4980614;28;20518;-68
2023/04/20 04:39:37;;;;;;;3.83;2.73;;;7.20;97.20;;;;;;4993875;28;20491;-70
2023/04/20 04:42:11;;;;;;;4.23;2.70;;;7.30;97.30;;;;;;4998421;28;20489;-69
2023/04/20 04:44:40;;;;;;;3.90;3.30;;;7.40;97.20;;;;;;5001608;28;20511;-68
2023/04/20 04:47:08;;;;;;;7.17;3.00;;;7.40;97.20;;;;;;4996370;28;20476;-69
2023/04/20 04:49:39;;;;;;;5.50;4.30;;;7.50;97.10;;;;;;4997419;28;20464;-69
2023/04/20 04:52:05;;;;;;;7.27;4.50;;;7.40;97.30;;;;;;5000185;28;20475;-67
2023/04/20 04:54:31;;;;;;;7.40;4.40;;;7.50;97.20;;;;;;4998931;28;20498;-68
2023/04/20 04:56:57;;;;;;;5.70;3.77;;;7.50;97.30;;;;;;4997440;28;20309;-69
2023/04/20 04:59:22;;;;;;;6.97;3.87;;;7.50;97.40;;;;;;4992762;28;20235;-67
2023/04/20 05:01:48;;;;;;;4.30;3.77;;;7.40;97.50;;;;;;4999174;28;20464;-68
2023/04/20 05:04:14;;;;;;;4.80;3.47;;;7.40;97.70;;;;;;5005848;28;20452;-74
2023/04/20 05:06:39;;;;;;;5.47;3.60;;;7.40;97.70;;;;;;5007773;28;20236;-67
2023/04/20 05:09:05;;;;;;;3.97;3.30;;;7.40;97.70;;;;;;5005322;28;20666;-67
2023/04/20 05:11:31;;;;;;;4.23;3.47;;;7.40;97.90;;;;;;5008222;28;20228;-67
2023/04/20 05:13:58;;;;;;;5.50;3.60;;;7.40;98.00;;;;;;5009060;28;20327;-68
2023/04/20 05:16:23;;;;;;;5.13;3.53;;;7.40;98.20;;;;;;4992870;28;20546;-69
2023/04/20 05:18:49;;;;;;;7.83;3.50;;;7.40;98.50;;;;;;5006181;28;20323;-70
2023/04/20 05:21:15;;;;;;;5.70;3.33;;;7.30;99.10;;;;;;5011155;28;20274;-69
2023/04/20 05:23:41;;;;;;;5.50;3.83;;;7.40;98.90;;;;;;5009104;28;20463;-68
2023/04/20 05:26:07;;;;;;;6.73;3.70;;;7.40;99.20;;;;;;5010508;28;20232;-68
2023/04/20 05:28:33;;;;;;;7.47;3.23;;;7.40;99.00;;;;;;4993505;28;20371;-69
2023/04/20 05:30:59;;;;;;;5.10;2.93;;;7.40;99.40;;;;;;5005281;28;20224;-69
2023/04/20 05:33:25;;;;;;;4.97;3.30;;;7.40;99.90;;;;;;4992918;28;20450;-70
2023/04/20 05:35:55;;;;;;;3.87;3.33;;;7.40;99.80;;;;;;4989589;28;20243;-70
2023/04/20 05:38:21;;;;;;;5.20;3.73;;;7.40;99.70;;;;;;5010254;28;20588;-69
2023/04/20 05:40:47;;;;;;;5.10;3.47;;;7.40;99.90;;;;;;5007200;28;20480;-69
2023/04/20 05:43:12;;;;;;;5.67;3.93;;;7.40;99.90;;;;;;5009911;28;20274;-69
2023/04/20 05:45:38;;;;;;;7.83;4.27;;;7.40;99.90;;;;;;5009273;28;20208;-69
2023/04/20 05:48:04;;;;;;;4.03;3.60;;;7.40;99.90;;;;;;5006319;28;20249;-70
2023/04/20 05:50:30;;;;;;;3.70;3.10;;;7.40;99.90;;;;;;5009278;28;20241;-69
2023/04/20 05:52:55;;;;;;;3.33;2.97;;;7.40;99.90;;;;;;5009226;28;20705;-69
2023/04/20 05:55:21;;;;;;;5.93;3.50;;;7.40;99.90;;;;;;5010912;28;20225;-70
2023/04/20 05:57:47;;;;;;;4.80;4.17;;;7.40;99.90;;;;;;5008811;28;20223;-70
2023/04/20 06:00:15;;;;;;;5.77;4.13;;;7.40;99.90;;;;;;5008971;28;20232;-70
2023/04/20 06:02:41;;;;;;;3.43;3.13;;;7.40;99.90;;;;;;5007307;28;20293;-69
2023/04/20 06:05:08;;;;;;;4.07;3.43;;;7.40;99.90;;;;;;5005980;28;20526;-69
2023/04/20 06:07:34;;;;;;;4.67;3.67;;;7.40;99.90;;;;;;5007135;28;20475;-70
2023/04/20 06:10:00;;;;;;;6.57;3.70;;;7.30;99.90;;;;;;5005642;28;20494;-70
2023/04/20 06:12:28;;;;;;;6.43;3.80;;;7.30;99.90;;;;;;5008121;28;20476;-69
2023/04/20 06:14:57;;;;;;;5.90;3.10;;;7.30;99.90;;;;;;5008091;28;20491;-70
2023/04/20 06:17:23;;;;;;;3.70;3.00;;;7.20;99.90;;;;;;4993162;28;20993;-70
2023/04/20 06:19:49;;;;;;;5.13;4.13;;;7.20;99.90;;;;;;5004998;28;20475;-70
2023/04/20 06:22:15;;;;;;;4.70;4.00;;;7.20;99.90;;;;;;4996745;28;20327;-71
2023/04/20 06:24:41;;;;;;;4.60;3.47;;;7.30;99.90;;;;;;5008714;28;20225;-69
2023/04/20 06:27:10;;;;;;;4.07;3.27;;;7.40;99.90;;;;;;5007125;28;20522;-69
2023/04/20 06:29:36;;;;;;;4.57;3.67;;;7.40;99.90;;;;;;5010225;28;20248;-70
2023/04/20 06:32:02;;;;;;;3.80;3.40;;;7.40;99.90;;;;;;4994295;28;20507;-69
2023/04/20 06:34:27;;;;;;;3.77;3.47;;;7.40;99.90;;;;;;4992006;28;20224;-70
2023/04/20 06:36:53;;;;;;;4.47;3.73;;;7.40;99.90;;;;;;5008186;28;20728;-70
2023/04/20 06:39:19;;;;;;;4.73;3.50;;;7.40;99.90;;;;;;5005110;28;20227;-70
2023/04/20 06:41:44;;;;;;;3.87;3.40;;;7.50;99.90;;;;;;5007139;28;20576;-70
2023/04/20 06:44:12;;;;;;;7.40;4.20;;;7.50;99.90;;;;;;5007671;28;20216;-69
2023/04/20 06:46:38;;;;;;;3.90;3.50;;;7.50;99.90;;;;;;5006283;28;20459;-69
2023/04/20 06:49:04;;;;;;;5.77;3.80;;;7.50;99.90;;;;;;5005274;28;20236;-69
2023/04/20 06:51:31;;;;;;;5.63;3.70;;;7.50;99.90;;;;;;5007522;28;20220;-70
2023/04/20 06:53:57;;;;;;;4.63;3.60;;;7.40;99.90;;;;;;5009922;28;20654;-70
2023/04/20 06:56:23;;;;;;;6.17;4.37;;;7.40;99.90;;;;;;5005868;28;20503;-69
2023/04/20 06:58:48;;;;;;;5.30;4.00;;;7.50;99.90;;;;;;5005083;28;20511;-70
2023/04/20 07:01:14;;;;;;;4.80;3.80;;;7.50;99.90;;;;;;5000005;28;20229;-72
2023/04/20 07:03:40;;;;;;;5.03;3.83;;;7.50;99.90;;;;;;5003808;28;20902;-68
2023/04/20 07:06:06;;;;;;;6.60;4.30;;;7.40;99.90;;;;;;5010387;28;20236;-68
2023/04/20 07:08:34;;;;;;;8.73;3.80;;;7.40;99.90;;;;;;4995181;28;20747;-70
2023/04/20 07:11:00;;;;;;;5.60;3.90;;;7.40;99.90;;;;;;5003961;28;20253;-69
2023/04/20 07:13:27;;;;;;;5.33;4.43;;;7.40;99.90;;;;;;5007020;28;20499;-68
2023/04/20 07:15:52;;;;;;;4.97;3.93;;;7.40;99.90;;;;;;5007148;28;20212;-70
2023/04/20 07:18:18;;;;;;;5.27;4.77;;;7.40;99.90;;;;;;5007312;28;20480;-67
2023/04/20 07:20:44;;;;;;;7.70;5.10;;;7.40;99.90;;;;;;5007022;28;20224;-70
2023/04/20 07:23:09;;;;;;;4.47;3.87;;;7.40;99.90;;;;;;5009187;28;20228;-68
2023/04/20 07:25:35;;;;;;;6.40;4.27;;;7.40;99.90;;;;;;5009082;28;20216;-69
2023/04/20 07:28:01;;;;;;;5.47;4.47;;;7.30;99.90;;;;;;5002534;28;20308;-69
2023/04/20 07:30:26;;;;;;;4.80;4.10;;;7.30;99.90;;;;;;5006150;28;20237;-69
2023/04/20 07:32:52;;;;;;;4.67;3.97;;;7.30;99.90;;;;;;5004328;28;20220;-70
2023/04/20 07:35:18;;;;;;;9.57;4.87;;;7.30;99.90;;;;;;5008942;28;20208;-70
2023/04/20 07:37:43;;;;;;;6.87;4.80;;;7.30;99.90;;;;;;5005682;28;20710;-70
2023/04/20 07:40:09;;;;;;;6.00;4.23;;;7.20;99.90;;;;;;5004503;28;20216;-69
2023/04/20 07:42:36;;;;;;;7.57;4.43;;;7.30;99.90;;;;;;5007632;28;20221;-69
2023/04/20 07:45:09;;;;;;;5.90;4.80;;;7.40;99.90;;;;;;5003895;28;20479;-70
2023/04/20 07:47:36;;;;;;;5.83;4.73;;;7.40;99.90;;;;;;5015607;28;20528;-69
2023/04/20 07:50:05;;;;;;;5.53;4.10;;;7.40;99.90;;;;;;5016766;28;20456;-70
2023/04/20 07:52:31;;;;;;;5.13;4.43;;;7.40;99.90;;;;;;5002986;28;20458;-70
2023/04/20 07:54:58;;;;;;;8.00;5.00;;;7.40;99.90;;;;;;5006484;28;20470;-70
2023/04/20 07:57:25;;;;;;;6.17;5.30;;;7.40;99.90;;;;;;5005736;28;20251;-70
2023/04/20 07:59:51;;;;;;;7.10;4.60;;;7.50;99.90;;;;;;5006741;28;20614;-70
2023/04/20 08:02:17;;;;;;;9.80;5.47;;;7.40;99.90;;;;;;4993525;28;20540;-70
2023/04/20 08:04:47;;;;;;;9.27;5.00;;;7.50;99.90;;;;;;5002895;28;20468;-69
2023/04/20 08:07:13;;;;;;;7.67;5.00;;;7.50;99.90;;;;;;5007620;28;20363;-69
2023/04/20 08:09:39;;;;;;;7.83;4.77;;;7.60;99.90;;;;;;5006727;28;20511;-70
2023/04/20 08:12:04;;;;;;;5.60;3.90;;;7.50;99.90;;;;;;5006015;28;20263;-70
2023/04/20 08:14:30;;;;;;;12.70;5.90;;;7.50;99.90;;;;;;5001389;28;20282;-69
2023/04/20 08:16:56;;;;;;;9.90;6.20;;;7.60;99.90;;;;;;4989026;28;20233;-69
2023/04/20 08:19:22;;;;;;;7.47;5.70;;;7.50;99.90;;;;;;5002025;28;20472;-70
2023/04/20 08:21:50;;;;;;;6.50;5.00;;;7.50;99.90;;;;;;5001318;28;20224;-69
2023/04/20 08:24:15;;;;;;;7.10;5.27;;;7.50;99.90;;;;;;5005165;28;20221;-71
2023/04/20 08:26:42;;;;;;;6.63;4.17;;;7.60;99.90;;;;;;4988023;28;20462;-70
2023/04/20 08:29:08;;;;;;;8.83;5.07;;;7.70;99.90;;;;;;5010851;28;20217;-69
2023/04/20 08:31:34;;;;;;;6.20;4.60;;;7.60;99.90;;;;;;5011129;28;20479;-70
2023/04/20 08:34:00;;;;;;;5.90;4.63;;;7.60;99.90;;;;;;5010700;28;20695;-70
2023/04/20 08:36:26;;;;;;;5.97;4.67;;;7.70;99.90;;;;;;5012500;28;20910;-70
2023/04/20 08:39:11;;;;;;;5.53;4.50;;;7.70;99.90;;;;;;5010340;28;20237;-70
2023/04/20 08:41:36;;;;;;;8.17;5.43;;;7.80;99.90;;;;;;5010363;28;20466;-69
2023/04/20 08:44:03;;;;;;;7.77;5.07;;;7.80;99.90;;;;;;5003105;28;20524;-70
2023/04/20 08:46:29;;;;;;;8.63;5.67;;;7.80;99.90;;;;;;5009593;28;20708;-70
2023/04/20 08:48:55;;;;;;;6.17;4.20;;;7.80;99.90;;;;;;5005465;28;20551;-70
2023/04/20 08:51:21;;;;;;;7.80;5.07;;;7.90;99.90;;;;;;5005886;28;20272;-69
2023/04/20 08:53:47;;;;;;;5.53;4.50;;;7.90;99.90;;;;;;5010116;28;20430;-70
2023/04/20 08:56:12;;;;;;;7.00;4.77;;;8.00;99.90;;;;;;5008516;28;20542;-70
2023/04/20 08:58:41;;;;;;;4.80;4.07;;;8.00;99.90;;;;;;5004491;28;20591;-69
2023/04/20 09:01:11;;;;;;;4.73;3.97;;;8.00;99.90;;;;;;4993510;28;20289;-68
2023/04/20 09:03:41;;;;;;;5.30;4.03;;;8.10;99.90;;;;;;5007003;28;21103;-70
2023/04/20 09:06:15;;;;;;;7.30;5.00;;;8.10;99.90;;;;;;5009426;28;21015;-69
2023/04/20 09:08:42;;;;;;;8.07;5.13;;;8.20;99.90;;;;;;5009327;28;20462;-70
2023/04/20 09:11:21;;;;;;;6.70;4.67;;;8.20;99.90;;;;;;5010761;28;20468;-68
2023/04/20 09:14:00;;;;;;;5.60;4.00;;;8.20;99.90;;;;;;5009637;28;20470;-70
2023/04/20 09:16:26;;;;;;;6.17;4.70;;;8.40;99.90;;;;;;5008001;28;20550;-69
2023/04/20 09:18:53;;;;;;;6.27;4.53;;;8.30;99.90;;;;;;4992661;28;20476;-69
2023/04/20 09:21:20;;;;;;;5.80;4.67;;;8.30;99.90;;;;;;5001710;28;21004;-69
2023/04/20 09:23:56;;;;;;;6.73;5.40;;;8.30;99.90;;;;;;5007342;28;20460;-70
2023/04/20 09:26:22;;;;;;;6.87;5.73;;;8.30;99.90;;;;;;5007963;28;20483;-70
2023/04/20 09:28:47;;;;;;;4.90;3.93;;;8.40;99.90;;;;;;5006575;28;20465;-70
2023/04/20 09:31:17;;;;;;;6.03;4.83;;;8.50;99.90;;;;;;5002972;28;20229;-69
2023/04/20 09:33:43;;;;;;;5.40;4.23;;;8.60;99.90;;;;;;5009122;28;20637;-70
2023/04/20 09:36:09;;;;;;;5.73;4.73;;;8.70;99.90;;;;;;5007212;28;20536;-69
2023/04/20 09:38:35;;;;;;;6.10;5.00;;;8.70;99.90;;;;;;4989263;28;20226;-70
2023/04/20 09:41:02;;;;;;;8.83;5.37;;;8.70;99.90;;;;;;5008136;28;20464;-70
2023/04/20 09:43:29;;;;;;;9.97;5.13;;;8.70;99.90;;;;;;4991083;28;20512;-70
2023/04/20 09:45:55;;;;;;;5.90;5.30;;;8.80;99.90;;;;;;5010601;28;20540;-70
2023/04/20 09:48:21;;;;;;;6.73;6.03;;;8.90;99.90;;;;;;5001350;28;20600;-70
2023/04/20 09:50:47;;;;;;;6.53;4.70;;;9.00;99.90;;;;;;4992082;28;20226;-70
2023/04/20 09:53:17;;;;;;;5.90;4.73;;;9.00;99.90;;;;;;4988867;28;20216;-69
2023/04/20 09:55:47;;;;;;;9.80;6.07;;;8.90;99.90;;;;;;5008039;28;20483;-69
2023/04/20 09:58:13;;;;;;;7.23;6.10;;;9.00;99.90;;;;;;4991471;28;20494;-68
2023/04/20 10:00:39;;;;;;;7.93;5.83;;;9.10;99.90;;;;;;5007149;28;20510;-69
2023/04/20 10:03:07;;;;;;;9.50;6.40;;;9.10;99.90;;;;;;5005072;28;20453;-70
2023/04/20 10:05:38;;;;;;;9.03;6.90;;;9.10;99.90;;;;;;5010281;28;20217;-69
2023/04/20 10:08:05;;;;;;;8.40;5.97;;;9.10;99.90;;;;;;4991385;28;20475;-71
2023/04/20 10:10:42;;;;;;;8.50;6.17;;;9.20;99.90;;;;;;4992197;28;20467;-70
2023/04/20 10:13:08;;;;;;;7.83;6.40;;;9.40;99.90;;;;;;5009299;28;20538;-69
2023/04/20 10:15:41;;;;;;;10.27;6.90;;;9.30;99.90;;;;;;5004522;28;20516;-70
2023/04/20 10:18:22;;;;;;;5.40;4.90;;;9.30;99.90;;;;;;5004864;28;20225;-69
2023/04/20 10:20:49;;;;;;;7.40;5.17;;;9.30;99.90;;;;;;5004412;28;20461;-70
2023/04/20 10:23:15;;;;;;;7.73;5.67;;;9.40;99.90;;;;;;5005252;28;20894;-74
2023/04/20 10:25:41;;;;;;;7.83;5.90;;;9.50;99.90;;;;;;5007942;28;20512;-70
2023/04/20 10:28:09;;;;;;;7.00;5.47;;;9.50;99.90;;;;;;5006485;28;20460;-69
2023/04/20 10:30:36;;;;;;;5.53;5.03;;;9.50;99.90;;;;;;5000112;28;20899;-69
2023/04/20 10:33:05;;;;;;;7.87;6.30;;;9.70;99.90;;;;;;4994371;28;20499;-70
2023/04/20 10:35:53;;;;;;;9.60;5.77;;;9.60;99.90;;;;;;4992753;28;20468;-70
2023/04/20 10:38:31;;;;;;;7.10;5.37;;;9.60;99.90;;;;;;4999012;28;20543;-68
2023/04/20 10:41:10;;;;;;;6.63;5.43;;;9.80;99.90;;;;;;4997142;28;20551;-69
2023/04/20 10:43:42;;;;;;;5.10;4.37;;;9.80;99.90;;;;;;4999596;28;20422;-69
2023/04/20 10:46:20;;;;;;;7.03;5.37;;;10.10;99.90;;;;;;4987883;28;20464;-70
2023/04/20 10:48:57;;;;;;;6.80;5.67;;;10.30;99.90;;;;;;4999615;28;20462;-69
2023/04/20 10:51:24;;;;;;;7.30;5.43;;;10.50;99.90;;;;;;4984040;28;20508;-69
2023/04/20 10:54:05;;;;;;;6.90;5.60;;;10.40;99.90;;;;;;5002722;28;20495;-70
2023/04/20 10:56:39;;;;;;;6.97;5.20;;;10.30;99.90;;;;;;4985681;28;20890;-70
2023/04/20 10:59:07;;;;;;;6.30;4.80;;;10.40;99.90;;;;;;4997782;28;21017;-69
2023/04/20 11:01:33;;;;;;;6.53;4.87;;;10.50;99.90;;;;;;5002646;28;20453;-70
2023/04/20 11:03:59;;;;;;;6.63;5.27;;;10.60;99.90;;;;;;4996532;28;21155;-70
2023/04/20 11:06:24;;;;;;;5.40;4.90;;;10.50;99.90;;;;;;4995601;28;20472;-69
2023/04/20 11:08:50;;;;;;;6.67;5.67;;;10.90;99.90;;;;;;4985216;28;20256;-70
2023/04/20 11:11:18;;;;;;;5.67;4.90;;;10.90;99.90;;;;;;4984468;28;20498;-69
2023/04/20 11:13:43;;;;;;;12.73;5.70;;;11.00;99.90;;;;;;4990568;28;20645;-70
2023/04/20 11:16:11;;;;;;;6.00;5.40;;;11.10;99.90;;;;;;5000681;28;20534;-69
2023/04/20 11:18:50;;;;;;;6.47;5.87;;;11.00;99.90;;;;;;4999318;28;20749;-69
2023/04/20 11:21:16;;;;;;;7.83;6.00;;;11.20;99.90;;;;;;4993386;28;20561;-71
2023/04/20 11:23:42;;;;;;;5.73;5.10;;;11.00;99.90;;;;;;5002039;28;20556;-70
2023/04/20 11:26:08;;;;;;;6.97;5.90;;;11.00;99.90;;;;;;5003548;28;20220;-69
2023/04/20 11:28:34;;;;;;;6.40;5.50;;;11.10;99.90;;;;;;4998452;28;20460;-71
2023/04/20 11:31:00;;;;;;;7.80;5.07;;;11.50;99.90;;;;;;4998646;28;20225;-69
2023/04/20 11:33:30;;;;;;;7.13;5.70;;;11.50;99.90;;;;;;4981595;28;20225;-69
2023/04/20 11:35:57;;;;;;;7.47;6.17;;;11.20;99.90;;;;;;4985960;28;20651;-70
2023/04/20 11:38:30;;;;;;;5.97;5.37;;;11.60;99.90;;;;;;5014030;28;20532;-69
2023/04/20 11:40:56;;;;;;;16.27;6.00;;;11.60;99.90;;;;;;5005952;28;20450;-70
2023/04/20 11:43:22;;;;;;;8.07;5.23;;;11.60;99.90;;;;;;4999214;28;20453;-70
2023/04/20 11:45:48;;;;;;;7.73;5.83;;;11.60;99.90;;;;;;5006125;28;20253;-70
2023/04/20 11:48:13;;;;;;;6.03;5.03;;;11.50;99.90;;;;;;5004237;28;20233;-70
2023/04/20 11:50:39;;;;;;;7.60;5.47;;;11.80;99.90;;;;;;5003803;28;20476;-69
2023/04/20 11:53:05;;;;;;;7.10;5.80;;;11.80;99.90;;;;;;5008847;28;20320;-70
2023/04/20 11:55:30;;;;;;;9.70;6.53;;;11.70;99.90;;;;;;5007713;28;20202;-70
2023/04/20 11:57:56;;;;;;;8.70;6.27;;;11.60;99.90;;;;;;5000505;28;20272;-71
2023/04/20 12:00:22;;;;;;;7.43;5.30;;;11.60;99.90;;;;;;5000622;28;20222;-70
2023/04/20 12:02:47;;;;;;;6.93;4.43;;;11.60;99.90;;;;;;5006117;28;20226;-71
2023/04/20 12:05:13;;;;;;;6.90;5.00;;;11.70;99.90;;;;;;5010132;28;20221;-70
2023/04/20 12:07:39;;;;;;;7.43;5.23;;;11.80;99.90;;;;;;5008840;28;20700;-70
2023/04/20 12:10:06;;;;;;;6.30;4.73;;;11.80;99.90;;;;;;4991603;28;20473;-71
2023/04/20 12:12:32;;;;;;;7.00;4.90;;;11.70;99.90;;;;;;5003824;28;20225;-71
2023/04/20 12:14:58;;;;;;;6.43;5.47;;;11.60;99.90;;;;;;4994460;28;20461;-70
2023/04/20 12:17:24;;;;;;;5.00;4.47;;;11.50;99.90;;;;;;5011163;28;20249;-71
2023/04/20 12:19:49;;;;;;;6.57;4.63;;;11.50;99.90;;;;;;5004530;28;20241;-70
2023/04/20 12:22:15;;;;;;;6.93;5.20;;;11.50;99.90;;;;;;4991293;28;20217;-72
2023/04/20 12:24:41;;;;;;;8.97;6.00;;;11.60;99.90;;;;;;5010447;28;20274;-70
2023/04/20 12:27:06;;;;;;;14.90;5.83;;;11.60;99.90;;;;;;5008941;28;20305;-69
2023/04/20 12:29:32;;;;;;;6.07;4.67;;;11.50;99.90;;;;;;5007850;28;20222;-70
2023/04/20 12:31:58;;;;;;;7.20;4.83;;;11.50;99.90;;;;;;5005397;28;20226;-71
2023/04/20 12:34:24;;;;;;;6.03;4.53;;;11.40;99.90;;;;;;5008403;28;20707;-70
2023/04/20 12:36:49;;;;;;;11.40;6.67;;;11.50;99.90;;;;;;5005874;28;20542;-69
2023/04/20 12:39:15;;;;;;;13.93;6.17;;;11.50;99.90;;;;;;4987416;28;20368;-73
2023/04/20 12:41:41;;;;;;;6.80;5.67;;;11.60;99.90;;;;;;5008463;28;20248;-69
2023/04/20 12:44:06;;;;;;;6.20;4.00;;;11.70;99.90;;;;;;5010228;28;20214;-69
2023/04/20 12:46:32;;;;;;;6.63;4.47;;;11.60;99.90;;;;;;5010344;28;20307;-69
2023/04/20 12:48:58;;;;;;;6.80;4.53;;;11.60;99.90;;;;;;5007640;28;20230;-70
2023/04/20 12:51:23;;;;;;;6.87;4.87;;;11.60;99.90;;;;;;5019912;28;20238;-68
2023/04/20 12:53:49;;;;;;;6.70;4.67;;;11.70;99.90;;;;;;5008952;28;20228;-69
2023/04/20 12:56:15;;;;;;;6.00;4.80;;;11.60;99.90;;;;;;5001826;28;20315;-77